Time;durP1;ratioP1;P1;durP2;ratioP2;P2;SDS_P1;SDS_P2;PMS_P1;PMS_P2;Temp;Humidity;BMP_temperature;BMP_pressure;BME280_temperature;BME280_humidity;BME280_pressure;Samples;Min_cycle;Max_cycle;Signal;HPM_P1;HPM_P2
2021/09/22 00:03:37;;;;;;;10.40;9.50;;;;;;;8.49;77.30;100079.11;473796;1190;142965;-63
2021/09/22 00:13:43;;;;;;;11.40;7.90;;;;;;;8.40;77.26;100072.38;477834;1190;141533;-65
2021/09/22 00:23:49;;;;;;;10.30;8.50;;;;;;;8.40;77.47;100062.76;468457;1190;141168;-62
2021/09/22 00:33:55;;;;;;;11.20;8.80;;;;;;;8.47;77.49;100059.83;469494;1190;140990;-65
2021/09/22 00:44:00;;;;;;;11.70;8.50;;;;;;;8.51;77.60;100057.20;476979;1190;141726;-62
2021/09/22 00:54:06;;;;;;;10.20;9.10;;;;;;;8.53;77.87;100053.65;477871;1190;141428;-64
2021/09/22 01:04:12;;;;;;;10.60;9.50;;;;;;;8.41;77.98;100046.83;477871;1190;141808;-61
2021/09/22 01:14:23;;;;;;;9.60;8.60;;;;;;;8.37;78.39;100039.01;469527;1190;141421;-64
2021/09/22 01:24:28;;;;;;;13.20;10.80;;;;;;;8.34;78.55;100027.48;468872;1190;140988;-64
2021/09/22 01:34:34;;;;;;;12.60;10.90;;;;;;;8.37;78.80;100023.30;464028;1190;141111;-65
2021/09/22 01:44:40;;;;;;;13.00;11.80;;;;;;;8.37;79.05;100029.94;477025;1191;141684;-62
2021/09/22 01:54:46;;;;;;;11.20;10.10;;;;;;;8.35;79.01;100029.54;476481;1191;141379;-59
2021/09/22 02:04:52;;;;;;;11.20;10.10;;;;;;;8.32;79.16;100027.72;475001;1191;141502;-60
2021/09/22 02:14:58;;;;;;;14.60;13.00;;;;;;;8.31;79.05;100026.38;469081;1191;140813;-61
2021/09/22 02:25:05;;;;;;;10.40;9.30;;;;;;;8.26;79.11;100022.08;464607;1191;141258;-59
2021/09/22 02:35:13;;;;;;;10.50;8.40;;;;;;;8.00;78.65;100025.73;476888;1191;142149;-60
2021/09/22 02:45:19;;;;;;;12.90;10.90;;;;;;;7.63;78.89;100026.02;477616;1191;195612;-60
2021/09/22 02:55:25;;;;;;;10.00;8.80;;;;;;;7.46;79.53;100040.16;477915;1190;142346;-60
2021/09/22 03:05:31;;;;;;;12.00;9.80;;;;;;;7.54;79.62;100045.90;477088;1190;141844;-61
2021/09/22 03:15:37;;;;;;;12.20;9.10;;;;;;;7.58;79.44;100044.69;469791;1190;141584;-60
2021/09/22 03:25:43;;;;;;;16.90;10.60;;;;;;;7.51;79.42;100044.98;470141;1190;140883;-62
2021/09/22 03:35:50;;;;;;;15.70;10.80;;;;;;;7.46;79.61;100042.61;477035;1190;140771;-60
2021/09/22 03:45:56;;;;;;;16.20;9.10;;;;;;;7.48;79.65;100046.54;477862;1190;141364;-61
2021/09/22 03:56:01;;;;;;;11.50;9.50;;;;;;;7.48;79.58;100053.31;466943;1190;161665;-61
2021/09/22 04:06:07;;;;;;;12.00;10.70;;;;;;;7.51;79.65;100052.86;473089;1190;141811;-60
2021/09/22 04:16:13;;;;;;;13.30;11.90;;;;;;;7.54;79.72;100055.86;477888;1189;141198;-61
2021/09/22 04:26:19;;;;;;;13.40;11.80;;;;;;;7.58;79.93;100057.55;477065;1190;141790;-61
2021/09/22 04:36:25;;;;;;;14.40;12.40;;;;;;;7.66;80.05;100059.48;470456;1190;142060;-61
2021/09/22 04:46:32;;;;;;;13.90;12.50;;;;;;;7.71;80.09;100069.54;461046;1177;140748;-61
2021/09/22 04:56:38;;;;;;;15.30;13.10;;;;;;;7.73;79.94;100070.01;471066;1190;142083;-60
2021/09/22 05:06:44;;;;;;;13.30;11.60;;;;;;;7.75;79.80;100075.98;477663;1190;141515;-60
2021/09/22 05:16:49;;;;;;;13.90;12.40;;;;;;;7.79;79.57;100079.31;474599;1190;141292;-58
2021/09/22 05:26:56;;;;;;;14.50;11.60;;;;;;;7.90;79.79;100091.02;460230;1191;141953;-61
2021/09/22 05:37:02;;;;;;;15.50;13.20;;;;;;;8.00;79.59;100089.88;474293;1190;141058;-60
2021/09/22 05:47:08;;;;;;;14.50;12.30;;;;;;;8.26;79.56;100093.26;476808;1190;141674;-64
2021/09/22 05:57:14;;;;;;;13.50;10.90;;;;;;;8.45;78.82;100096.92;477626;1191;142511;-61
2021/09/22 06:07:20;;;;;;;14.80;11.50;;;;;;;8.58;78.18;100107.69;477650;1191;141922;-61
2021/09/22 06:17:26;;;;;;;14.20;12.70;;;;;;;8.69;77.93;100124.95;476927;1190;143371;-60
2021/09/22 06:27:32;;;;;;;13.80;11.00;;;;;;;9.23;77.60;100128.48;477782;1190;142196;-60
2021/09/22 06:37:38;;;;;;;12.50;10.80;;;;;;;10.40;76.49;100135.21;473270;1190;142541;-61
2021/09/22 06:47:44;;;;;;;13.60;9.90;;;;;;;11.09;74.36;100141.42;460230;1190;141132;-59
2021/09/22 06:57:49;;;;;;;10.10;9.10;;;;;;;10.92;73.36;100145.88;469205;1190;140831;-62
2021/09/22 07:07:55;;;;;;;10.40;9.20;;;;;;;10.24;73.53;100148.30;469068;1191;141055;-61
2021/09/22 07:18:01;;;;;;;11.10;9.90;;;;;;;10.18;74.15;100161.58;477631;1190;142095;-60
2021/09/22 07:28:07;;;;;;;9.10;8.20;;;;;;;10.73;73.72;100171.07;474418;1191;141717;-65
2021/09/22 07:38:13;;;;;;;9.50;8.00;;;;;;;11.55;72.70;100177.83;465100;1192;141555;-70
2021/09/22 07:48:21;;;;;;;6.80;5.90;;;;;;;11.83;71.28;100192.20;477642;1191;141042;-69
2021/09/22 07:58:27;;;;;;;5.70;4.90;;;;;;;11.39;70.66;100190.86;469488;1191;141747;-69
2021/09/22 08:08:33;;;;;;;6.70;4.90;;;;;;;11.19;70.47;100195.85;461681;1192;140607;-67
2021/09/22 08:18:43;;;;;;;7.60;6.20;;;;;;;11.25;70.68;100203.90;460861;1192;141780;-63
2021/09/22 08:28:49;;;;;;;6.00;5.40;;;;;;;11.57;69.98;100214.17;462919;1192;141056;-68
2021/09/22 08:38:57;;;;;;;5.10;4.70;;;;;;;11.56;69.37;100209.20;459766;1192;141106;-73
2021/09/22 08:49:04;;;;;;;6.50;4.70;;;;;;;11.87;68.95;100214.08;464241;1192;141351;-67
2021/09/22 08:59:12;;;;;;;5.60;4.80;;;;;;;12.26;67.85;100213.13;461552;1192;141543;-74
2021/09/22 09:09:18;;;;;;;6.60;4.70;;;;;;;12.96;66.81;100215.32;466227;1190;142826;-70
2021/09/22 09:19:25;;;;;;;7.40;5.40;;;;;;;13.97;65.51;100206.63;462223;1191;197153;-70
2021/09/22 09:29:32;;;;;;;5.30;4.60;;;;;;;14.81;63.78;100199.93;476805;1191;141278;-66
2021/09/22 09:39:42;;;;;;;11.00;5.50;;;;;;;15.30;62.68;100188.80;472845;1191;141007;-71
2021/09/22 09:49:49;;;;;;;5.60;4.50;;;;;;;15.80;60.81;100174.30;462661;1191;145039;-76
2021/09/22 09:59:55;;;;;;;6.30;4.40;;;;;;;15.97;59.64;100175.83;450511;1190;20001972;-66
2021/09/22 10:10:02;;;;;;;4.80;3.70;;;;;;;16.28;58.44;100168.73;467668;1192;140955;-70
2021/09/22 10:20:11;;;;;;;3.80;3.30;;;;;;;15.09;57.60;100166.88;465823;1190;140780;-73
2021/09/22 10:30:18;;;;;;;5.70;3.80;;;;;;;14.10;57.97;100158.58;464403;1190;140117;-72
2021/09/22 10:40:49;;;;;;;5.60;3.60;;;;;;;13.69;58.24;100148.36;478109;1190;142144;-72
2021/09/22 10:50:59;;;;;;;2.90;2.70;;;;;;;13.79;57.87;100146.10;471387;1190;142426;-70
2021/09/22 11:01:05;;;;;;;2.30;2.10;;;;;;;14.30;56.74;100145.21;463204;1190;140337;-72
2021/09/22 11:11:12;;;;;;;3.80;3.10;;;;;;;14.01;56.46;100150.36;462719;1190;142194;-70
2021/09/22 11:21:21;;;;;;;4.50;3.50;;;;;;;13.89;56.27;100158.45;472037;1190;140792;-65
2021/09/22 11:31:37;;;;;;;4.30;3.20;;;;;;;13.45;56.71;100158.20;477723;1190;141831;-65
2021/09/22 11:41:43;;;;;;;3.80;3.30;;;;;;;13.59;57.00;100160.81;468975;1190;140740;-67
2021/09/22 11:52:07;;;;;;;4.80;3.80;;;;;;;13.41;57.57;100157.59;472234;1190;140028;-69
2021/09/22 12:02:13;;;;;;;9.30;4.50;;;;;;;13.32;58.05;100166.43;462146;1190;142517;-65
2021/09/22 12:12:21;;;;;;;5.60;4.80;;;;;;;13.26;58.47;100163.52;462466;1190;140936;-72
2021/09/22 12:22:30;;;;;;;7.50;5.30;;;;;;;13.08;58.91;100158.65;465671;1190;139838;-73
2021/09/22 12:32:51;;;;;;;10.30;5.60;;;;;;;12.83;59.75;100160.27;466628;1190;142079;-72
2021/09/22 12:42:58;;;;;;;4.10;3.30;;;;;;;12.87;59.62;100158.45;468779;1190;141801;-67
2021/09/22 12:53:11;;;;;;;3.10;2.80;;;;;;;13.21;58.92;100164.86;473937;1190;141558;-68
2021/09/22 13:03:25;;;;;;;4.00;3.30;;;;;;;13.37;58.72;100151.51;468536;1190;142207;-68
2021/09/22 13:13:52;;;;;;;5.10;3.20;;;;;;;13.53;58.17;100151.15;470315;1190;141292;-66
2021/09/22 13:24:00;;;;;;;3.90;3.50;;;;;;;13.67;57.72;100152.90;461671;1190;140425;-62
2021/09/22 13:34:08;;;;;;;6.60;3.30;;;;;;;13.63;57.52;100152.08;468435;1190;140844;-68
2021/09/22 13:44:14;;;;;;;3.70;2.90;;;;;;;13.70;57.30;100156.21;473828;1190;141285;-61
2021/09/22 13:54:20;;;;;;;2.90;2.60;;;;;;;13.61;57.24;100156.45;462164;1190;140216;-68
2021/09/22 14:04:26;;;;;;;5.20;3.20;;;;;;;13.42;57.21;100151.87;464829;1191;140063;-67
2021/09/22 14:14:32;;;;;;;3.20;2.90;;;;;;;13.20;57.39;100153.11;468749;1190;141159;-68
2021/09/22 14:24:37;;;;;;;3.80;2.70;;;;;;;12.94;57.84;100150.46;465059;1190;141048;-63
2021/09/22 14:34:43;;;;;;;4.70;3.20;;;;;;;12.87;58.75;100143.52;471765;1190;140265;-64
2021/09/22 14:44:49;;;;;;;4.00;3.10;;;;;;;12.68;58.97;100141.90;476497;1191;141157;-66
2021/09/22 14:54:55;;;;;;;4.50;3.80;;;;;;;12.46;58.92;100136.10;460440;1190;10002515;-62
2021/09/22 15:05:00;;;;;;;6.00;3.20;;;;;;;12.28;59.51;100143.02;460544;1178;140384;-60
2021/09/22 15:15:08;;;;;;;4.10;3.30;;;;;;;12.03;59.66;100149.41;472526;1190;141053;-67
2021/09/22 15:25:14;;;;;;;3.90;3.20;;;;;;;11.90;60.31;100153.00;474813;1190;141957;-59
2021/09/22 15:35:20;;;;;;;4.00;3.60;;;;;;;11.75;60.61;100152.29;465147;1190;140985;-60
2021/09/22 15:45:32;;;;;;;6.50;3.90;;;;;;;11.61;61.17;100153.11;477601;1191;141436;-60
2021/09/22 15:55:39;;;;;;;8.70;4.70;;;;;;;11.41;61.75;100153.39;461235;1191;10001961;-65
2021/09/22 16:05:47;;;;;;;5.80;4.20;;;;;;;11.22;62.42;100150.11;463391;1192;142879;-61
2021/09/22 16:15:55;;;;;;;7.80;5.30;;;;;;;11.09;63.12;100150.85;460691;1190;141310;-66
2021/09/22 16:26:01;;;;;;;5.60;4.70;;;;;;;10.94;63.65;100157.99;460681;1192;142995;-67
2021/09/22 16:36:07;;;;;;;7.30;4.70;;;;;;;10.80;64.08;100154.56;461737;1190;143432;-68
2021/09/22 16:46:13;;;;;;;9.70;5.50;;;;;;;10.73;64.66;100148.34;461585;1192;141234;-67
2021/09/22 16:56:20;;;;;;;9.00;5.40;;;;;;;10.65;65.32;100142.45;462037;1190;141641;-67
2021/09/22 17:06:26;;;;;;;6.80;5.20;;;;;;;10.57;65.96;100139.38;462255;1188;142064;-63
2021/09/22 17:16:33;;;;;;;8.30;5.70;;;;;;;10.48;66.42;100129.77;462809;1190;141669;-60
2021/09/22 17:26:41;;;;;;;8.70;7.50;;;;;;;10.41;66.95;100120.48;461779;1190;141045;-61
2021/09/22 17:36:48;;;;;;;11.20;7.00;;;;;;;10.37;67.06;100125.92;462174;1190;140839;-65
2021/09/22 17:46:54;;;;;;;8.30;7.30;;;;;;;10.32;67.44;100119.87;464850;1190;142735;-69
2021/09/22 17:57:00;;;;;;;13.20;9.40;;;;;;;10.30;67.85;100115.10;472823;1191;141179;-66
2021/09/22 18:07:06;;;;;;;20.60;12.90;;;;;;;10.29;68.38;100117.23;461292;1192;10001741;-67
2021/09/22 18:17:13;;;;;;;15.60;10.90;;;;;;;10.31;68.93;100117.01;471663;1190;142322;-69
2021/09/22 18:27:21;;;;;;;19.10;12.80;;;;;;;10.31;69.09;100117.53;477139;1191;142732;-63
2021/09/22 18:37:27;;;;;;;30.40;19.10;;;;;;;10.30;69.38;100112.14;465522;1188;141496;-69
2021/09/22 18:47:33;;;;;;;17.40;12.30;;;;;;;10.27;69.71;100110.36;471125;1190;144201;-67
2021/09/22 18:57:39;;;;;;;29.90;18.20;;;;;;;10.24;69.91;100118.06;472624;1192;142601;-65
2021/09/22 19:07:45;;;;;;;22.30;14.10;;;;;;;10.20;70.06;100122.29;475569;1190;141560;-63
2021/09/22 19:17:51;;;;;;;23.30;16.30;;;;;;;10.14;70.31;100105.28;476990;1190;142633;-63
2021/09/22 19:27:57;;;;;;;17.30;13.00;;;;;;;10.15;70.59;100105.75;475079;1190;141723;-63
2021/09/22 19:38:03;;;;;;;17.30;11.10;;;;;;;10.16;70.78;100107.25;463877;1191;140825;-63
2021/09/22 19:48:09;;;;;;;18.20;12.60;;;;;;;10.17;70.83;100102.33;472898;1190;142022;-63
2021/09/22 19:58:15;;;;;;;25.30;19.60;;;;;;;10.12;71.07;100089.10;472689;1190;142809;-62
2021/09/22 20:08:21;;;;;;;20.60;16.50;;;;;;;10.05;71.37;100089.65;460497;1190;147518;-63
2021/09/22 20:18:27;;;;;;;21.50;16.90;;;;;;;10.00;71.87;100084.16;468100;1190;142337;-63
2021/09/22 20:28:32;;;;;;;24.30;19.50;;;;;;;9.97;72.23;100071.73;477689;1190;142343;-64
2021/09/22 20:38:39;;;;;;;21.20;17.20;;;;;;;9.96;72.54;100071.61;468957;1190;142464;-63
2021/09/22 20:48:46;;;;;;;20.30;17.70;;;;;;;9.93;72.66;100077.39;477652;1190;145073;-63
2021/09/22 20:58:53;;;;;;;21.00;16.40;;;;;;;9.93;72.96;100078.59;477818;1190;142035;-64
2021/09/22 21:09:00;;;;;;;21.30;14.80;;;;;;;9.81;72.81;100073.79;476802;1190;142209;-63
2021/09/22 21:19:06;;;;;;;16.20;11.60;;;;;;;9.75;73.11;100060.85;466501;1191;141500;-63
2021/09/22 21:29:12;;;;;;;15.10;11.90;;;;;;;9.72;73.32;100065.35;461744;1191;142481;-61
2021/09/22 21:39:18;;;;;;;14.70;11.20;;;;;;;9.68;73.45;100069.38;462018;1192;141164;-61
2021/09/22 21:49:24;;;;;;;16.80;12.40;;;;;;;9.66;73.64;100057.45;462011;1192;142073;-62
2021/09/22 21:59:30;;;;;;;15.50;12.70;;;;;;;9.61;73.91;100047.95;460589;1192;143166;-63
2021/09/22 22:09:35;;;;;;;16.90;11.50;;;;;;;9.52;74.27;100048.75;461284;1191;140944;-63
2021/09/22 22:19:43;;;;;;;17.10;13.40;;;;;;;9.40;74.54;100055.65;461631;1192;141937;-62
2021/09/22 22:29:49;;;;;;;20.20;12.30;;;;;;;9.35;74.87;100051.69;461150;1192;142169;-63
2021/09/22 22:40:01;;;;;;;14.90;12.40;;;;;;;9.26;75.03;100051.11;464824;1191;142573;-62
2021/09/22 22:50:09;;;;;;;15.90;11.50;;;;;;;9.08;75.47;100036.10;464225;1190;142090;-61
2021/09/22 23:00:16;;;;;;;14.50;11.40;;;;;;;9.05;75.63;100038.88;467862;1190;141521;-61
2021/09/22 23:10:21;;;;;;;16.20;12.50;;;;;;;9.05;75.93;100029.61;471350;1190;141943;-62
2021/09/22 23:20:36;;;;;;;14.80;12.10;;;;;;;8.98;75.94;100032.96;470364;1190;141496;-63
2021/09/22 23:30:44;;;;;;;15.00;11.50;;;;;;;8.88;76.07;100020.39;464136;1192;142060;-62
2021/09/22 23:40:50;;;;;;;18.90;12.30;;;;;;;8.82;76.10;100011.71;465938;1190;141414;-62
2021/09/22 23:50:56;;;;;;;16.90;13.00;;;;;;;8.82;76.47;100007.75;461492;1191;141579;-61
